Latest Weather Observations for Evans Head

IDN60801

Issued at 6:02 pm EST Sunday 2 August 2015 (issued every 30 minutes, with the page automatically refreshed every 10 minutes)

About weather observations | Map of weather stations | Latest weather observations for NSW | Other Formats
Station Details ID: 058212 Name: EVANS HEAD RAAF BOMBING RANGE AWS Lat: -29.18 Lon: 153.40 Height: 62.5 m
Data from the previous 72 hours. | See also: Recent months at Evans Head
Date/Time
EST
Temp
°C
App
Temp
°C
Dew
Point
Rel
Hum
%
Delta-T
°C
Wind Press
QNH
hPa
Press
MSL
hPa
Rain
since 9 am
mm
Dir
 
Spd
km/h
Gust
km/h
Spd
kts
Gust
kts
02/06:00pm 18.3 16.2 12.5 69 3.2 N 15 20 8 11 1017.2 1017.1 0.0
02/05:30pm 18.9 16.5 9.9 56 4.8 N 13 19 7 10 1016.7 1016.6 0.0
02/05:00pm 20.4 17.7 10.2 52 5.5 N 15 26 8 14 1016.4 1016.3 0.0
02/04:30pm 22.2 19.2 10.7 48 6.3 N 17 28 9 15 1016.2 1016.1 0.0
02/04:00pm 23.9 20.2 10.2 42 7.5 N 20 32 11 17 1016.0 1015.9 0.0
02/03:30pm 25.6 23.3 11.7 42 7.9 N 15 22 8 12 1016.3 1016.2 0.0
02/03:00pm 26.5 23.7 11.4 39 8.6 NNW 17 30 9 16 1016.3 1016.2 0.0
02/02:30pm 27.3 24.5 11.3 37 9.1 NNW 17 32 9 17 1016.6 1016.5 0.0
02/02:00pm 27.1 24.0 11.6 38 8.9 N 19 33 10 18 1016.8 1016.7 0.0
02/01:30pm 27.0 23.8 11.1 37 9.0 N 19 32 10 17 1017.1 1017.0 0.0
02/01:00pm 27.3 25.2 13.6 43 8.1 N 17 28 9 15 1017.7 1017.6 0.0
02/12:30pm 27.0 24.7 13.0 42 8.2 NNW 17 30 9 16 1018.3 1018.2 0.0
02/12:00pm 26.0 24.5 14.1 47 7.1 NNW 15 24 8 13 1019.0 1018.9 0.0
02/11:30am 25.1 23.4 14.6 52 6.3 NNW 17 24 9 13 1019.6 1019.5 0.0
02/11:00am 23.9 21.3 13.2 51 6.2 NNW 19 30 10 16 1020.0 1019.9 0.0
02/10:30am 23.0 20.5 13.5 55 5.5 NNW 19 28 10 15 1020.3 1020.2 0.0
02/10:00am 21.7 19.3 12.8 57 5.1 NNW 17 30 9 16 1020.7 1020.6 0.0
02/09:30am 20.4 18.4 12.6 61 4.4 N 15 24 8 13 1020.9 1020.8 0.0
02/09:00am 20.8 19.8 13.3 62 4.3 NNW 11 19 6 10 1020.7 1020.6 0.0
02/08:30am 19.2 18.0 12.9 67 3.5 NW 11 17 6 9 1020.6 1020.5 0.0
02/08:00am 17.2 16.8 12.3 73 2.7 WNW 6 9 3 5 1020.7 1020.6 0.0
02/07:30am 15.6 15.0 11.6 77 2.2 WNW 6 11 3 6 1020.7 1020.6 0.0
02/07:00am 13.2 12.1 11.9 92 0.7 WNW 9 13 5 7 1020.5 1020.4 0.0
02/06:30am 11.7 10.2 10.6 93 0.6 NW 9 13 5 7 1020.4 1020.3 0.0
02/06:00am 11.7 10.7 10.3 91 0.7 N 6 9 3 5 1020.2 1020.1 0.0
02/05:30am 13.0 11.5 10.7 86 1.2 W 9 13 5 7 1020.1 1020.0 0.0
02/05:00am 10.5 8.5 10.0 97 0.3 NNW 11 17 6 9 1019.9 1019.8 0.0
02/04:30am 10.5 8.5 10.0 97 0.3 N 11 13 6 7 1019.7 1019.6 0.0
02/04:00am 10.9 8.2 10.4 97 0.3 N 15 17 8 9 1019.9 1019.8 0.0
02/03:30am 11.4 9.2 10.9 97 0.3 NNW 13 19 7 10 1019.9 1019.8 0.0
02/03:00am 11.8 9.7 11.3 97 0.3 N 13 19 7 10 1020.0 1019.9 0.0
02/02:30am 12.5 10.2 11.6 94 0.5 N 15 19 8 10 1020.3 1020.2 0.0
02/02:00am 12.6 10.5 11.0 90 0.8 N 13 17 7 9 1020.5 1020.4 0.0
02/01:30am 13.6 12.0 11.5 87 1.1 N 11 15 6 8 1020.8 1020.7 0.0
02/01:00am 13.4 11.2 10.8 84 1.4 N 13 15 7 8 1021.0 1020.9 0.0
02/12:30am 13.6 11.2 10.2 80 1.8 N 13 17 7 9 1020.9 1020.8 0.0
02/12:00am 15.4 13.9 10.6 73 2.5 NE 9 13 5 7 1021.2 1021.1 0.0
 
Date/Time
EST
Temp
°C
App
Temp
°C
Dew
Point
Rel
Hum
%
Delta-T
°C
Wind Press
QNH
hPa
Press
MSL
hPa
Rain
since 9 am
mm
Dir
 
Spd
km/h
Gust
km/h
Spd
kts
Gust
kts
01/11:30pm 14.5 12.7 12.2 86 1.3 N 13 17 7 9 1021.1 1021.0 0.0
01/11:00pm 13.2 12.0 12.7 97 0.3 N 11 17 6 9 1021.1 1021.0 0.0
01/10:30pm 13.5 12.7 13.0 97 0.3 N 9 11 5 6 1021.2 1021.1 0.0
01/10:00pm 13.9 13.3 13.4 97 0.3 N 9 13 5 7 1021.2 1021.1 0.0
01/09:30pm 14.4 14.3 13.9 97 0.3 NNE 7 11 4 6 1021.2 1021.1 0.0
01/09:00pm 14.0 13.5 13.7 98 0.2 N 9 13 5 7 1021.2 1021.1 0.0
01/08:30pm 14.4 13.6 14.1 98 0.2 N 11 13 6 7 1021.2 1021.1 0.0
01/08:00pm 14.6 14.2 14.1 97 0.3 N 9 11 5 6 1020.9 1020.8 0.0
01/07:30pm 15.3 15.2 15.0 98 0.2 NNE 9 15 5 8 1020.6 1020.5 0.0
01/07:00pm 15.5 15.8 15.0 97 0.3 N 7 11 4 6 1020.2 1020.1 0.0
01/06:30pm 15.9 15.2 15.4 97 0.3 N 13 15 7 8 1019.8 1019.7 0.0
01/06:00pm 16.5 16.4 16.0 97 0.3 N 11 13 6 7 1019.7 1019.6 0.0
01/05:30pm 17.3 17.0 15.5 89 1.1 N 11 13 6 7 1019.5 1019.4 0.0
01/05:00pm 18.6 18.0 15.7 83 1.7 N 13 22 7 12 1019.2 1019.1 0.0
01/04:30pm 19.8 19.5 15.4 76 2.6 NE 11 20 6 11 1019.1 1019.0 0.0
01/04:00pm 21.3 21.1 15.8 71 3.3 NNE 11 17 6 9 1019.3 1019.2 0.0
01/03:30pm 22.1 21.6 15.0 64 4.2 NNE 11 17 6 9 1019.2 1019.1 0.0
01/03:00pm 23.1 23.2 15.4 62 4.6 NNE 9 15 5 8 1019.5 1019.4 0.0
01/02:30pm 22.3 21.6 14.4 61 4.6 NE 11 22 6 12 1019.6 1019.5 0.0
01/02:00pm 22.3 21.4 14.9 63 4.4 NE 13 20 7 11 1019.9 1019.8 0.0
01/01:30pm 23.6 22.3 13.8 54 5.7 NE 13 20 7 11 1020.4 1020.3 0.0
01/01:00pm 23.9 22.2 12.5 49 6.5 NNW 13 20 7 11 1020.8 1020.7 0.0
01/12:30pm 24.0 22.8 12.9 50 6.4 N 11 20 6 11 1021.1 1021.0 0.0
01/12:00pm 22.7 20.5 12.0 50 6.0 N 15 24 8 13 1021.8 1021.7 0.0
01/11:30am 22.4 20.5 12.9 55 5.5 N 15 22 8 12 1022.2 1022.1 0.0
01/11:00am 21.6 20.0 11.6 53 5.6 N 11 19 6 10 1022.8 1022.7 0.0
01/10:30am 21.4 20.5 12.5 57 5.0 N 9 15 5 8 1023.0 1022.9 0.0
01/10:00am 20.3 19.2 12.0 59 4.6 NNW 9 13 5 7 1023.4 1023.3 0.0
01/09:30am 18.6 18.7 12.6 68 3.4 N 4 7 2 4 1023.4 1023.4 0.0
01/09:00am 16.3 16.8 11.5 73 2.6 CALM 0 0 0 0 1023.4 1023.4 0.0
01/08:30am 15.0 14.5 12.7 86 1.3 NNW 7 11 4 6 1023.4 1023.4 0.0
01/08:00am 13.1 11.8 11.3 89 0.9 WNW 9 13 5 7 1023.5 1023.5 0.0
01/07:30am 11.4 9.2 10.9 97 0.3 W 13 17 7 9 1023.3 1023.3 0.0
01/07:00am 9.6 7.8 9.3 98 0.1 WNW 9 13 5 7 1022.9 1022.9 0.0
01/06:30am 8.8 6.8 8.5 98 0.1 N 9 11 5 6 1022.4 1022.4 0.0
01/06:00am 9.2 7.2 8.7 97 0.2 N 9 9 5 5 1022.1 1022.1 0.0
01/05:30am 9.5 8.0 9.0 97 0.2 WNW 7 9 4 5 1022.0 1022.0 0.0
01/05:00am 10.6 9.6 10.3 98 0.2 WNW 6 7 3 4 1021.8 1021.8 0.0
01/04:30am 9.2 7.2 8.7 97 0.2 N 9 13 5 7 1021.7 1021.7 0.0
01/04:00am 9.8 8.5 9.3 97 0.2 NW 6 7 3 4 1021.8 1021.8 0.0
01/03:30am 10.5 8.4 8.3 86 1.1 WNW 9 11 5 6 1022.1 1022.1 0.0
01/03:00am 12.8 10.0 8.7 76 2.0 WSW 13 15 7 8 1022.2 1022.2 0.0
01/02:30am 13.5 11.2 9.0 74 2.3 WSW 11 13 6 7 1022.3 1022.3 0.0
01/02:00am 14.3 14.4 10.1 76 2.2 CALM 0 0 0 0 1022.6 1022.6 0.0
01/01:30am 14.1 13.9 10.5 79 1.9 NW 2 7 1 4 1022.8 1022.8 0.0
01/01:00am 13.7 12.1 10.3 80 1.8 NNW 9 9 5 5 1022.8 1022.8 0.0
01/12:30am 13.8 12.1 9.8 77 2.1 NNW 9 9 5 5 1022.8 1022.8 0.0
01/12:00am 14.5 13.1 9.7 73 2.5 NNW 7 9 4 5 1022.8 1022.8 0.0
 
Date/Time
EST
Temp
°C
App
Temp
°C
Dew
Point
Rel
Hum
%
Delta-T
°C
Wind Press
QNH
hPa
Press
MSL
hPa
Rain
since 9 am
mm
Dir
 
Spd
km/h
Gust
km/h
Spd
kts
Gust
kts
31/11:30pm 15.0 13.8 9.6 70 2.8 N 6 7 3 4 1022.8 1022.8 0.0
31/11:00pm 15.1 13.8 9.2 68 3.0 NE 6 9 3 5 1022.7 1022.7 0.0
31/10:30pm 15.9 14.4 9.3 65 3.4 NE 7 9 4 5 1022.9 1022.9 0.0
31/10:00pm 16.3 14.6 9.7 65 3.4 ENE 9 11 5 6 1022.8 1022.8 0.0
31/09:30pm 16.2 14.1 9.6 65 3.4 ENE 11 13 6 7 1022.6 1022.6 0.0
31/09:00pm 16.2 14.1 9.8 66 3.3 ENE 11 15 6 8 1022.4 1022.4 0.0
31/08:30pm 16.2 14.1 9.6 65 3.4 ENE 11 15 6 8 1022.2 1022.2 0.0
31/08:00pm 16.1 13.5 9.3 64 3.5 ENE 13 15 7 8 1021.8 1021.8 0.0
31/07:30pm 15.9 13.2 9.1 64 3.5 ENE 13 15 7 8 1021.6 1021.6 0.0
31/07:00pm 14.9 12.7 7.9 63 3.5 NE 9 13 5 7 1021.4 1021.4 0.0
31/06:30pm 14.7 12.5 7.7 63 3.5 NNE 9 11 5 6 1021.0 1021.0 0.0
31/06:00pm 15.5 13.4 8.3 62 3.6 NE 9 11 5 6 1020.6 1020.6 0.0
31/05:30pm 15.4 13.4 8.6 64 3.5 NNE 9 11 5 6 1020.4 1020.4 0.0
31/05:00pm 16.5 14.1 8.5 59 4.1 ENE 11 15 6 8 1020.3 1020.3 0.0
31/04:30pm 17.5 15.4 8.4 55 4.7 NE 9 11 5 6 1019.9 1019.8 0.0
31/04:00pm 18.4 16.8 10.3 59 4.3 NE 9 11 5 6 1020.0 1019.9 0.0
31/03:30pm 19.0 17.3 9.8 55 4.9 ENE 9 11 5 6 1020.0 1019.9 0.0
31/03:00pm 19.4 17.6 9.6 53 5.2 E 9 13 5 7 1020.2 1020.1 0.0
31/02:30pm 19.8 17.8 10.0 53 5.3 E 11 17 6 9 1020.4 1020.4 0.0
31/02:00pm 19.9 17.3 9.2 50 5.7 SE 13 17 7 9 1020.5 1020.5 0.0
31/01:30pm 20.3 17.5 10.1 52 5.5 SE 15 20 8 11 1020.6 1020.6 0.0
31/01:00pm 21.0 18.5 9.6 48 6.1 S 13 20 7 11 1020.9 1020.9 0.0
31/12:30pm 20.6 18.5 8.3 45 6.4 W 9 17 5 9 1021.2 1021.2 0.0
31/12:00pm 20.1 17.4 7.5 44 6.4 WSW 11 19 6 10 1021.7 1021.7 0.0
31/11:30am 20.4 18.5 9.0 48 6.0 WNW 9 15 5 8 1022.1 1022.1 0.0
31/11:00am 20.9 18.8 11.3 54 5.3 NNW 13 19 7 10 1022.4 1022.4 0.0
31/10:30am 19.9 17.6 10.6 55 5.1 NW 13 19 7 10 1022.7 1022.7 0.0
31/10:00am 18.6 15.9 10.2 58 4.5 NW 15 22 8 12 1022.9 1022.9 0.0
31/09:30am 17.6 14.8 11.2 66 3.5 NW 17 24 9 13 1022.9 1022.9 0.0
31/09:00am 17.1 15.8 13.8 81 1.9 NW 13 26 7 14 1022.8 1022.8 0.2
31/08:30am 14.9 13.8 14.4 97 0.3 NW 13 20 7 11 1022.7 1022.7 0.2
31/08:00am 13.3 11.8 13.0 98 0.2 NNW 13 20 7 11 1022.3 1022.3 0.2
31/07:30am 13.3 11.0 13.1 99 0.1 NNW 17 28 9 15 1022.1 1022.1 0.2
31/07:00am 11.3 8.8 11.1 99 0.1 NNW 15 20 8 11 1022.2 1022.2 0.2
31/06:30am 9.6 7.8 9.5 99 0.0 NNW 9 13 5 7 1021.8 1021.8 0.2
31/06:00am 9.9 8.2 9.8 99 0.1 N 9 13 5 7 1021.4 1021.4 0.2
31/05:30am 10.2 7.4 10.0 99 0.1 NNW 15 19 8 10 1021.1 1021.1 0.2
31/05:00am 9.7 7.1 9.4 98 0.1 NNW 13 19 7 10 1020.8 1020.8 0.2
31/04:30am 9.9 7.8 9.6 98 0.2 NNW 11 15 6 8 1020.9 1020.9 0.2
31/04:00am 10.5 8.9 10.2 98 0.2 NNW 9 15 5 8 1021.0 1021.0 0.2
31/03:30am 11.3 9.2 11.1 99 0.1 NNW 13 20 7 11 1021.5 1021.5 0.2
31/03:00am 11.0 8.8 10.7 98 0.2 NNW 13 20 7 11 1021.4 1021.4 0.2
31/02:30am 11.3 9.2 11.0 98 0.2 NNW 13 17 7 9 1021.6 1021.6 0.2
31/02:00am 11.8 10.6 11.5 98 0.2 NNW 9 15 5 8 1022.3 1022.3 0.2
31/01:30am 11.9 10.7 11.7 99 0.1 NNW 9 17 5 9 1022.7 1022.7 0.2
31/01:00am 11.6 9.6 11.4 99 0.1 NNW 13 20 7 11 1022.7 1022.7 0.0
31/12:30am 11.5 9.8 11.2 98 0.2 NNW 11 15 6 8 1022.5 1022.5 0.0
31/12:00am 11.7 9.7 11.4 98 0.2 NNW 13 17 7 9 1022.9 1022.9 0.0
 
Date/Time
EST
Temp
°C
App
Temp
°C
Dew
Point
Rel
Hum
%
Delta-T
°C
Wind Press
QNH
hPa
Press
MSL
hPa
Rain
since 9 am
mm
Dir
 
Spd
km/h
Gust
km/h
Spd
kts
Gust
kts
30/11:30pm 11.7 9.7 11.4 98 0.2 NNW 13 17 7 9 1023.0 1023.0 0.0
30/11:00pm 12.2 10.3 11.9 98 0.2 N 13 17 7 9 1023.1 1023.1 0.0
30/10:30pm 12.7 11.0 12.4 98 0.2 N 13 19 7 10 1023.4 1023.4 0.0
30/10:00pm 13.0 11.4 12.7 98 0.2 N 13 20 7 11 1023.6 1023.6 0.0
30/09:30pm 13.8 11.3 13.5 98 0.2 N 19 22 10 12 1023.7 1023.7 0.0
30/09:00pm 14.1 11.7 13.8 98 0.2 N 19 33 10 18 1023.4 1023.4 0.0
30/08:30pm 14.1 11.5 13.8 98 0.2 N 20 28 11 15 1023.4 1023.4 0.0
30/08:00pm 14.0 11.9 13.7 98 0.2 N 17 26 9 14 1023.7 1023.7 0.0
30/07:30pm 14.0 12.7 13.7 98 0.2 N 13 20 7 11 1023.8 1023.8 0.0
30/07:00pm 14.2 12.9 13.7 97 0.3 N 13 19 7 10 1023.8 1023.8 0.0
30/06:30pm 14.3 13.0 13.8 97 0.3 NNE 13 17 7 9 1023.8 1023.8 0.0

Other Formats:

Comma delimited format used in spreadsheet applications
http://www.bom.gov.au/fwo/IDN60801/IDN60801.94598.axf

JavaScript Object Notation format (JSON) in row-major order
http://www.bom.gov.au/fwo/IDN60801/IDN60801.94598.json